Time;durP1;ratioP1;P1;durP2;ratioP2;P2;SDS_P1;SDS_P2;PMS_P1;PMS_P2;Temp;Humidity;BMP_temperature;BMP_pressure;BME280_temperature;BME280_humidity;BME280_pressure;Samples;Min_cycle;Max_cycle;Signal;HPM_P1;HPM_P2
2023/12/04 05:30:07;;;;;;;0.10;0.10;;;8.00;93.60;;;;;;6135385;23;20017;31
2023/12/04 05:32:33;;;;;;;0.10;0.10;;;8.00;93.50;;;;;;4962845;28;20051;-78
2023/12/04 05:34:58;;;;;;;0.10;0.10;;;8.10;93.50;;;;;;4971199;28;20030;-78
2023/12/04 05:37:24;;;;;;;0.10;0.10;;;8.10;93.40;;;;;;4989585;28;20472;-78
2023/12/04 05:39:51;;;;;;;0.10;0.10;;;8.10;93.30;;;;;;4974203;28;20077;-78
2023/12/04 05:42:16;;;;;;;0.10;0.10;;;8.10;93.40;;;;;;4957338;28;20030;-78
2023/12/04 05:44:42;;;;;;;0.10;0.10;;;8.20;93.30;;;;;;4974947;28;20511;-79
2023/12/04 05:47:08;;;;;;;0.10;0.10;;;8.30;93.20;;;;;;4974300;28;20031;-81
2023/12/04 05:49:34;;;;;;;0.10;0.10;;;8.30;93.20;;;;;;4974263;28;20090;-76
2023/12/04 05:51:59;;;;;;;0.10;0.10;;;8.30;93.10;;;;;;4976446;28;20038;-77
2023/12/04 05:54:25;;;;;;;0.10;0.10;;;8.30;93.10;;;;;;4975988;28;20093;-78
2023/12/04 05:56:50;;;;;;;0.10;0.10;;;8.30;93.10;;;;;;4957294;28;20026;-78
2023/12/04 05:59:16;;;;;;;0.10;0.10;;;8.30;93.00;;;;;;4974654;28;20031;-76
2023/12/04 06:01:42;;;;;;;0.10;0.10;;;8.40;93.00;;;;;;4964219;28;20031;-76
2023/12/04 06:04:07;;;;;;;0.10;0.10;;;8.50;92.90;;;;;;4957215;28;20123;-75
2023/12/04 06:06:33;;;;;;;0.10;0.10;;;8.50;92.90;;;;;;4957480;28;20030;-74
2023/12/04 06:08:58;;;;;;;0.10;0.10;;;8.60;92.90;;;;;;4975037;28;20043;-75
2023/12/04 06:11:24;;;;;;;0.10;0.10;;;8.70;93.00;;;;;;4992773;28;20077;-76
2023/12/04 06:13:49;;;;;;;0.10;0.10;;;8.70;92.90;;;;;;4986232;28;20076;-75
2023/12/04 06:16:15;;;;;;;0.10;0.10;;;8.70;92.90;;;;;;4989756;28;20042;-76
2023/12/04 06:18:41;;;;;;;0.10;0.10;;;8.80;92.70;;;;;;4953822;28;20411;-76
2023/12/04 06:21:07;;;;;;;0.10;0.10;;;8.80;92.60;;;;;;4977302;28;20050;-78
2023/12/04 06:23:32;;;;;;;0.10;0.10;;;8.80;92.50;;;;;;4998217;28;20029;-83
2023/12/04 06:25:58;;;;;;;0.10;0.10;;;8.80;92.50;;;;;;4980744;28;20030;-81
2023/12/04 06:28:24;;;;;;;0.10;0.10;;;8.80;92.40;;;;;;4962857;28;20122;-83
2023/12/04 06:30:50;;;;;;;0.10;0.10;;;8.80;92.40;;;;;;4972993;28;20047;-84
2023/12/04 06:33:18;;;;;;;0.10;0.10;;;8.80;92.30;;;;;;4957449;29;20049;-85
2023/12/04 06:35:44;;;;;;;0.10;0.10;;;8.80;92.30;;;;;;4941624;29;20459;-84
2023/12/04 06:38:14;;;;;;;0.10;0.10;;;8.80;92.40;;;;;;4958522;29;20034;-84
2023/12/04 06:40:40;;;;;;;0.10;0.10;;;8.90;92.30;;;;;;4960081;28;20046;-84
2023/12/04 06:43:07;;;;;;;0.10;0.10;;;8.90;92.30;;;;;;4941354;29;20027;-83
2023/12/04 06:45:33;;;;;;;0.10;0.10;;;8.90;92.30;;;;;;4958998;29;20808;-83
2023/12/04 06:48:00;;;;;;;0.10;0.10;;;8.90;92.20;;;;;;4941168;29;20557;-82
2023/12/04 06:50:26;;;;;;;0.10;0.10;;;8.90;92.30;;;;;;4958248;29;20039;-86
2023/12/04 06:52:52;;;;;;;0.10;0.10;;;9.00;92.40;;;;;;4954075;29;20448;-86
2023/12/04 06:55:17;;;;;;;0.10;0.10;;;9.00;92.40;;;;;;4939855;29;20036;-80
2023/12/04 06:57:43;;;;;;;0.10;0.10;;;9.00;93.10;;;;;;4957201;29;20027;-85
2023/12/04 07:00:12;;;;;;;0.10;0.10;;;9.00;93.10;;;;;;4958626;29;20110;-85
2023/12/04 07:02:38;;;;;;;0.10;0.10;;;9.00;93.10;;;;;;4958390;29;20024;-85
2023/12/04 07:05:04;;;;;;;0.10;0.10;;;9.00;93.20;;;;;;4957601;29;20384;-87
2023/12/04 07:07:29;;;;;;;0.10;0.10;;;9.00;93.20;;;;;;4957384;29;20031;-84
2023/12/04 07:09:55;;;;;;;0.10;0.10;;;9.00;93.20;;;;;;4951910;29;20046;-85
2023/12/04 07:12:21;;;;;;;0.10;0.10;;;9.00;93.40;;;;;;4943784;29;20435;-85
2023/12/04 07:14:47;;;;;;;0.10;0.10;;;8.90;93.60;;;;;;4954798;29;20106;-85
2023/12/04 07:17:13;;;;;;;0.10;0.10;;;9.00;93.80;;;;;;4956555;29;20186;-84
2023/12/04 07:19:41;;;;;;;0.10;0.10;;;9.00;93.90;;;;;;4954989;29;20116;-84
2023/12/04 07:22:07;;;;;;;0.10;0.10;;;9.00;94.10;;;;;;4956710;29;20053;-85
2023/12/04 07:24:32;;;;;;;0.10;0.10;;;9.10;94.10;;;;;;4960306;29;20095;-84
2023/12/04 07:26:58;;;;;;;0.10;0.10;;;9.10;94.00;;;;;;4959625;29;20032;-84
2023/12/04 07:29:24;;;;;;;0.10;0.10;;;9.10;94.00;;;;;;4959843;29;20390;-84
2023/12/04 07:31:49;;;;;;;0.10;0.10;;;9.10;94.00;;;;;;4955522;28;20063;-85
2023/12/04 07:34:15;;;;;;;0.10;0.10;;;9.20;94.10;;;;;;4958150;28;20020;-85
2023/12/04 07:36:41;;;;;;;0.10;0.10;;;9.20;94.00;;;;;;4992294;28;20561;-85
2023/12/04 07:39:06;;;;;;;0.10;0.10;;;9.20;94.10;;;;;;4994260;28;20031;-84
2023/12/04 07:41:32;;;;;;;0.10;0.10;;;9.20;94.00;;;;;;4959556;28;20034;-85
2023/12/04 07:43:58;;;;;;;0.10;0.10;;;9.30;94.10;;;;;;4960290;28;20383;-85
2023/12/04 07:46:25;;;;;;;0.10;0.10;;;9.30;94.00;;;;;;4978807;28;20027;-85
2023/12/04 07:48:51;;;;;;;0.10;0.10;;;9.30;94.00;;;;;;4961822;28;20034;-84
2023/12/04 07:51:16;;;;;;;0.10;0.10;;;9.40;94.00;;;;;;4965793;28;20085;-85
2023/12/04 07:53:42;;;;;;;0.10;0.10;;;9.50;94.00;;;;;;4959104;29;20042;-86
2023/12/04 07:56:08;;;;;;;0.10;0.10;;;9.50;93.90;;;;;;4959204;29;20027;-84
2023/12/04 07:58:34;;;;;;;0.00;0.00;;;9.50;93.90;;;;;;4971013;28;20035;-85
2023/12/04 08:01:00;;;;;;;0.10;0.10;;;9.50;93.90;;;;;;4978462;28;20090;-86
2023/12/04 08:03:25;;;;;;;0.10;0.10;;;9.50;93.90;;;;;;4978191;28;20041;-85
2023/12/04 08:05:52;;;;;;;0.10;0.10;;;9.60;94.10;;;;;;4961503;28;20019;-85
2023/12/04 08:08:17;;;;;;;0.10;0.10;;;9.60;94.00;;;;;;4957859;28;20042;-86
2023/12/04 08:10:43;;;;;;;0.10;0.10;;;9.70;94.00;;;;;;4974176;28;20039;-85
2023/12/04 08:13:08;;;;;;;0.10;0.10;;;9.70;93.90;;;;;;4960211;28;20035;-84
2023/12/04 08:15:34;;;;;;;0.10;0.10;;;9.70;93.90;;;;;;4959847;28;20089;-84
2023/12/04 08:18:00;;;;;;;0.10;0.10;;;9.70;93.90;;;;;;4975031;28;20118;-86
2023/12/04 08:20:26;;;;;;;0.10;0.10;;;9.80;93.80;;;;;;4973401;28;20039;-85
2023/12/04 08:22:51;;;;;;;0.10;0.10;;;9.80;93.70;;;;;;4973278;28;20474;-86
2023/12/04 08:25:17;;;;;;;0.10;0.10;;;9.80;93.70;;;;;;4959061;29;20380;-85
2023/12/04 08:27:43;;;;;;;0.10;0.10;;;9.90;93.70;;;;;;4958588;29;20490;-86
2023/12/04 08:30:09;;;;;;;0.10;0.10;;;10.00;93.60;;;;;;4958533;28;20042;-86
2023/12/04 08:32:34;;;;;;;0.10;0.10;;;10.00;93.50;;;;;;4940911;29;20039;-85
2023/12/04 08:35:00;;;;;;;0.10;0.10;;;10.10;93.50;;;;;;4958170;29;20098;-85
2023/12/04 08:37:26;;;;;;;0.10;0.10;;;10.20;93.40;;;;;;4973306;28;20043;-85
2023/12/04 08:39:51;;;;;;;0.10;0.10;;;10.20;93.30;;;;;;4973108;28;20042;-86
2023/12/04 08:42:18;;;;;;;0.00;0.00;;;10.30;93.20;;;;;;4958210;29;20915;-86
2023/12/04 08:44:45;;;;;;;0.10;0.10;;;10.50;93.10;;;;;;4957573;28;20399;-85
2023/12/04 08:47:11;;;;;;;0.10;0.10;;;10.50;93.00;;;;;;4971338;28;20030;-85
2023/12/04 08:49:40;;;;;;;0.10;0.10;;;10.60;92.80;;;;;;4939300;29;20038;-85
2023/12/04 08:52:06;;;;;;;0.10;0.10;;;10.70;92.70;;;;;;4939084;29;20027;-86
2023/12/04 08:54:32;;;;;;;0.10;0.10;;;10.70;92.60;;;;;;4939013;29;20035;-86
2023/12/04 08:56:58;;;;;;;0.10;0.10;;;10.80;92.50;;;;;;4924311;29;20027;-86
2023/12/04 08:59:24;;;;;;;0.10;0.10;;;10.90;92.40;;;;;;4958044;29;20019;-85
2023/12/04 09:01:49;;;;;;;0.10;0.10;;;11.00;92.30;;;;;;4940605;29;20058;-86
2023/12/04 09:04:15;;;;;;;0.10;0.10;;;11.00;92.20;;;;;;4939792;29;20027;-86
2023/12/04 09:06:40;;;;;;;0.10;0.10;;;10.90;92.20;;;;;;4957626;29;20418;-85
2023/12/04 09:09:06;;;;;;;0.10;0.10;;;10.90;92.10;;;;;;4956847;29;20059;-85
2023/12/04 09:11:31;;;;;;;0.10;0.10;;;10.80;92.10;;;;;;4956023;29;20037;-84
2023/12/04 09:13:57;;;;;;;0.10;0.10;;;10.80;92.10;;;;;;4956814;29;20483;-86
2023/12/04 09:16:23;;;;;;;0.10;0.10;;;10.70;92.00;;;;;;4940143;29;20528;-84
2023/12/04 09:18:49;;;;;;;0.10;0.10;;;10.60;92.90;;;;;;4938898;29;20046;-85
2023/12/04 09:21:14;;;;;;;0.10;0.10;;;10.50;93.10;;;;;;4939306;29;20427;-85
2023/12/04 09:23:40;;;;;;;0.10;0.10;;;10.40;93.20;;;;;;4953008;29;20039;-84
2023/12/04 09:26:06;;;;;;;0.10;0.10;;;10.30;93.40;;;;;;4952678;29;20039;-84
2023/12/04 09:28:31;;;;;;;0.05;0.05;;;10.40;93.40;;;;;;4955537;29;20518;-83
2023/12/04 09:30:57;;;;;;;0.10;0.10;;;10.30;93.50;;;;;;4956610;28;20059;-83
2023/12/04 09:33:23;;;;;;;0.10;0.10;;;10.30;93.50;;;;;;4956719;29;20027;-84
2023/12/04 09:35:48;;;;;;;0.03;0.03;;;10.40;93.60;;;;;;4958262;29;20063;-83
2023/12/04 09:38:14;;;;;;;0.10;0.10;;;10.40;93.60;;;;;;4971732;28;20473;-84
2023/12/04 09:40:40;;;;;;;0.10;0.10;;;10.50;93.60;;;;;;4957557;29;20035;-84
2023/12/04 09:43:09;;;;;;;0.10;0.10;;;10.50;93.50;;;;;;4956016;29;20051;-84
2023/12/04 09:45:35;;;;;;;0.10;0.10;;;10.70;93.50;;;;;;4956286;29;20027;-84
2023/12/04 09:48:01;;;;;;;0.10;0.10;;;10.80;93.40;;;;;;4940670;29;20031;-84
2023/12/04 09:50:27;;;;;;;0.10;0.10;;;11.00;93.40;;;;;;4957343;29;20115;-84
2023/12/04 09:52:53;;;;;;;0.10;0.10;;;11.10;93.30;;;;;;4957538;29;20114;-84
2023/12/04 09:55:18;;;;;;;0.10;0.10;;;11.20;93.20;;;;;;4956553;28;20027;-84
2023/12/04 09:57:45;;;;;;;0.10;0.10;;;11.20;93.20;;;;;;4944340;29;20169;-84
2023/12/04 10:00:13;;;;;;;0.10;0.10;;;11.20;93.00;;;;;;4961261;29;20036;-83
2023/12/04 10:02:42;;;;;;;0.10;0.10;;;11.20;93.00;;;;;;4958338;29;20023;-82
2023/12/04 10:05:09;;;;;;;0.10;0.10;;;11.20;92.80;;;;;;4955852;29;20414;-84
2023/12/04 10:07:36;;;;;;;0.10;0.10;;;11.20;92.60;;;;;;4960139;29;20031;-84
2023/12/04 10:10:05;;;;;;;0.10;0.10;;;11.20;92.60;;;;;;4960129;29;20038;-85
2023/12/04 10:12:31;;;;;;;0.10;0.10;;;11.20;92.40;;;;;;4973932;28;20031;-84
2023/12/04 10:15:10;;;;;;;0.10;0.10;;;11.20;92.10;;;;;;4957731;29;20121;-85
2023/12/04 10:17:41;;;;;;;0.10;0.10;;;11.20;92.00;;;;;;4958111;29;20031;-88
2023/12/04 10:20:17;;;;;;;0.10;0.10;;;11.30;92.00;;;;;;4951246;29;20034;-85
2023/12/04 10:23:01;;;;;;;0.10;0.10;;;11.20;91.90;;;;;;4960015;29;20106;-86
2023/12/04 10:25:30;;;;;;;0.10;0.10;;;11.30;91.90;;;;;;4963681;28;20554;-86
2023/12/04 10:28:12;;;;;;;0.10;0.10;;;11.30;91.90;;;;;;4958801;29;20086;-85
2023/12/04 10:30:38;;;;;;;0.10;0.10;;;11.30;91.70;;;;;;4962278;28;20042;-84
2023/12/04 10:33:05;;;;;;;0.10;0.10;;;11.30;91.70;;;;;;4991364;28;20769;-85
2023/12/04 10:35:36;;;;;;;0.10;0.10;;;11.20;91.60;;;;;;4973466;28;20062;-87
2023/12/04 10:38:05;;;;;;;0.10;0.10;;;11.40;91.60;;;;;;4994093;28;20023;-83
2023/12/04 10:40:33;;;;;;;0.17;0.17;;;11.40;91.50;;;;;;4969889;28;20558;-84
2023/12/04 10:43:17;;;;;;;0.10;0.10;;;11.50;91.50;;;;;;4972308;28;20061;-84
2023/12/04 10:45:48;;;;;;;0.10;0.10;;;11.50;91.30;;;;;;4977819;28;20490;-84
2023/12/04 10:48:15;;;;;;;0.10;0.10;;;11.50;91.40;;;;;;4991457;28;20057;-84
2023/12/04 10:50:43;;;;;;;0.10;0.10;;;11.60;91.10;;;;;;4978482;28;20034;-84
2023/12/04 10:53:10;;;;;;;0.10;0.10;;;11.70;91.10;;;;;;4977298;28;20076;-84
2023/12/04 10:55:37;;;;;;;0.10;0.10;;;11.70;90.90;;;;;;4978554;28;20063;-85
2023/12/04 10:58:06;;;;;;;0.10;0.10;;;11.80;90.90;;;;;;4973242;28;20034;-84
2023/12/04 11:00:35;;;;;;;0.10;0.10;;;11.80;90.90;;;;;;4970327;28;20027;-84
2023/12/04 11:03:15;;;;;;;0.10;0.10;;;11.80;90.80;;;;;;4959454;28;20038;-84
2023/12/04 11:05:42;;;;;;;0.10;0.10;;;11.70;90.60;;;;;;4969233;28;20054;-84
2023/12/04 11:08:17;;;;;;;0.17;0.17;;;11.80;90.60;;;;;;4977324;28;20090;-84
2023/12/04 11:11:17;;;;;;;0.10;0.10;;;12.00;90.50;;;;;;4966933;28;20062;-84
2023/12/04 11:13:49;;;;;;;0.10;0.10;;;12.20;90.40;;;;;;4967874;28;20102;-85
2023/12/04 11:16:22;;;;;;;0.10;0.10;;;12.30;90.00;;;;;;4970400;28;20039;-84
2023/12/04 11:18:55;;;;;;;0.10;0.10;;;12.30;89.80;;;;;;4969976;28;20114;-85
2023/12/04 11:21:21;;;;;;;0.20;0.20;;;12.40;89.60;;;;;;4973851;28;20038;-84
2023/12/04 11:23:47;;;;;;;0.10;0.10;;;12.50;89.60;;;;;;4977487;28;20062;-84
2023/12/04 11:26:14;;;;;;;0.10;0.10;;;12.70;89.40;;;;;;4976785;28;20089;-84
2023/12/04 11:28:41;;;;;;;0.10;0.10;;;12.70;89.10;;;;;;4981051;28;20061;-85
2023/12/04 11:31:07;;;;;;;0.10;0.10;;;12.50;88.90;;;;;;4967254;28;20061;-84
2023/12/04 11:33:37;;;;;;;0.10;0.10;;;12.50;88.80;;;;;;4961371;28;20035;-85
2023/12/04 11:36:12;;;;;;;0.10;0.10;;;12.50;88.70;;;;;;4974847;28;20514;-84
2023/12/04 11:38:42;;;;;;;0.10;0.10;;;12.50;89.00;;;;;;4990883;28;20057;-83
2023/12/04 11:41:19;;;;;;;0.10;0.10;;;12.40;88.80;;;;;;4985654;28;20086;-84
2023/12/04 11:43:47;;;;;;;0.10;0.10;;;12.40;88.80;;;;;;4988563;28;20114;-83
2023/12/04 11:46:20;;;;;;;0.10;0.10;;;12.40;88.70;;;;;;4977500;28;20113;-84
2023/12/04 11:48:47;;;;;;;0.10;0.10;;;12.40;88.80;;;;;;4977244;28;20499;-83
2023/12/04 11:51:50;;;;;;;0.10;0.10;;;12.30;88.90;;;;;;4975771;28;20022;-84
2023/12/04 11:54:18;;;;;;;0.10;0.10;;;12.30;88.50;;;;;;4952159;28;20486;-85
2023/12/04 11:56:56;;;;;;;0.10;0.10;;;12.20;88.50;;;;;;4979240;28;20887;-85
2023/12/04 11:59:22;;;;;;;0.10;0.10;;;12.30;88.70;;;;;;4994166;28;20031;-84
2023/12/04 12:01:51;;;;;;;0.20;0.20;;;12.40;88.60;;;;;;4977282;28;20115;-84
2023/12/04 12:04:17;;;;;;;0.10;0.10;;;12.60;88.40;;;;;;4961814;28;20037;-84
2023/12/04 12:06:44;;;;;;;0.10;0.10;;;12.70;88.20;;;;;;4977341;28;20023;-85
2023/12/04 12:09:10;;;;;;;0.10;0.10;;;12.90;88.20;;;;;;4979884;28;20034;-85
2023/12/04 12:11:37;;;;;;;0.10;0.10;;;12.80;87.40;;;;;;4997541;28;20577;-85
2023/12/04 12:14:04;;;;;;;0.10;0.10;;;12.90;87.60;;;;;;4996639;28;20065;-82
2023/12/04 12:16:32;;;;;;;0.10;0.10;;;12.90;87.60;;;;;;4979680;28;20038;-82
2023/12/04 12:18:57;;;;;;;0.10;0.10;;;13.00;87.60;;;;;;4978687;28;20030;-81
2023/12/04 12:21:23;;;;;;;0.10;0.10;;;13.20;87.60;;;;;;4974818;28;20114;-84
2023/12/04 12:23:49;;;;;;;0.10;0.10;;;13.10;87.00;;;;;;4979211;28;20034;-81
2023/12/04 12:26:14;;;;;;;0.10;0.10;;;13.20;86.80;;;;;;4979421;28;20153;-82
2023/12/04 12:28:40;;;;;;;0.10;0.10;;;13.20;86.90;;;;;;4976218;28;20581;-81
2023/12/04 12:31:05;;;;;;;0.10;0.10;;;13.10;86.20;;;;;;4969334;28;20047;-81
2023/12/04 12:33:31;;;;;;;0.10;0.10;;;13.10;86.30;;;;;;4941127;29;20039;-82
2023/12/04 12:35:58;;;;;;;0.10;0.10;;;13.10;86.40;;;;;;4957720;29;20573;-81
2023/12/04 12:38:25;;;;;;;0.10;0.10;;;13.10;86.20;;;;;;4958055;29;20035;-81
2023/12/04 12:40:50;;;;;;;0.10;0.10;;;13.00;86.00;;;;;;4958017;29;20436;-81
2023/12/04 12:43:20;;;;;;;0.10;0.10;;;13.00;86.10;;;;;;4957688;29;20031;-78
2023/12/04 12:45:50;;;;;;;0.10;0.10;;;13.00;85.90;;;;;;4958202;28;20027;-78
2023/12/04 12:48:16;;;;;;;0.10;0.10;;;12.90;86.00;;;;;;4978085;28;20050;-81
2023/12/04 12:50:43;;;;;;;0.10;0.10;;;12.80;86.00;;;;;;4960366;28;20031;-79
2023/12/04 12:53:11;;;;;;;0.10;0.10;;;12.80;86.70;;;;;;4962693;28;20130;-79
2023/12/04 12:55:44;;;;;;;0.10;0.10;;;12.80;86.40;;;;;;4953702;29;20028;-79
2023/12/04 12:58:10;;;;;;;0.10;0.10;;;12.80;86.50;;;;;;4946840;29;20077;-79
2023/12/04 13:00:36;;;;;;;0.10;0.10;;;12.80;86.70;;;;;;4972876;28;20027;-79
2023/12/04 13:03:02;;;;;;;0.10;0.10;;;12.70;86.70;;;;;;4939992;29;20031;-79
2023/12/04 13:05:28;;;;;;;0.10;0.10;;;12.70;87.40;;;;;;4957555;29;20143;-80
2023/12/04 13:07:55;;;;;;;0.10;0.10;;;12.60;87.20;;;;;;4957362;29;20092;-80
2023/12/04 13:10:21;;;;;;;0.10;0.10;;;12.50;87.60;;;;;;4957769;29;20132;-80
2023/12/04 13:12:47;;;;;;;0.10;0.10;;;12.40;87.90;;;;;;4957510;29;20448;-79
2023/12/04 13:15:12;;;;;;;0.10;0.10;;;12.30;87.60;;;;;;4957228;29;20118;-79
2023/12/04 13:17:38;;;;;;;0.10;0.10;;;12.30;88.30;;;;;;4956864;29;20031;-79
2023/12/04 13:20:05;;;;;;;0.10;0.10;;;12.20;88.10;;;;;;4957449;29;20030;-78
2023/12/04 13:22:33;;;;;;;0.10;0.10;;;12.20;88.30;;;;;;4939831;29;20023;-79
2023/12/04 13:24:58;;;;;;;0.10;0.10;;;12.10;87.60;;;;;;4957338;29;20035;-79
2023/12/04 13:27:24;;;;;;;0.10;0.10;;;12.10;88.10;;;;;;4940287;29;20098;-78
2023/12/04 13:29:50;;;;;;;0.10;0.10;;;12.10;88.40;;;;;;4957443;28;20027;-79
2023/12/04 13:32:16;;;;;;;0.10;0.10;;;12.00;88.10;;;;;;4956359;28;20415;-78
2023/12/04 13:34:42;;;;;;;0.00;0.00;;;12.00;88.00;;;;;;4957122;29;20089;-78
2023/12/04 13:37:08;;;;;;;0.10;0.10;;;12.00;87.50;;;;;;4972127;28;20031;-79
2023/12/04 13:39:51;;;;;;;0.10;0.10;;;12.10;87.20;;;;;;4957566;29;20023;-78
2023/12/04 13:45:03;;;;;;;0.10;0.10;;;12.20;87.00;;;;;;4938388;29;20094;-78
2023/12/04 13:47:29;;;;;;;0.10;0.10;;;12.20;87.00;;;;;;4938235;29;20066;-78
2023/12/04 13:49:55;;;;;;;0.10;0.10;;;12.20;86.50;;;;;;4952981;29;20035;-78
2023/12/04 13:52:22;;;;;;;0.10;0.10;;;12.30;86.50;;;;;;4957186;29;20076;-78
2023/12/04 13:54:49;;;;;;;0.10;0.10;;;12.20;86.00;;;;;;4971672;28;20074;-78
2023/12/04 13:57:44;;;;;;;0.10;0.10;;;12.20;85.80;;;;;;4957007;29;20114;-78
2023/12/04 14:00:07;;;;;;;0.10;0.10;;;12.20;86.20;;;;;;4955664;29;20027;-78
2023/12/04 14:02:34;;;;;;;0.10;0.10;;;12.30;85.80;;;;;;4956750;29;20034;-78
2023/12/04 14:05:00;;;;;;;0.10;0.10;;;12.50;85.60;;;;;;4956989;29;20047;-78
2023/12/04 14:07:25;;;;;;;0.10;0.10;;;12.50;84.60;;;;;;4955748;29;20039;-77
2023/12/04 14:09:51;;;;;;;0.10;0.10;;;12.40;84.20;;;;;;4955819;29;20019;-78
2023/12/04 14:12:16;;;;;;;0.10;0.10;;;12.30;84.70;;;;;;4955558;29;20043;-78
2023/12/04 14:14:42;;;;;;;0.10;0.10;;;12.30;84.80;;;;;;4955244;29;20019;-78
2023/12/04 14:17:08;;;;;;;0.10;0.10;;;12.30;84.90;;;;;;4954723;29;20043;-78
2023/12/04 14:19:34;;;;;;;0.10;0.10;;;12.20;84.40;;;;;;4938175;29;20117;-78
2023/12/04 14:22:00;;;;;;;0.10;0.10;;;12.20;84.00;;;;;;4955824;29;20503;-78
2023/12/04 14:24:25;;;;;;;0.10;0.10;;;12.00;83.30;;;;;;4969295;28;20063;-77
2023/12/04 14:26:53;;;;;;;0.10;0.10;;;11.80;83.50;;;;;;4957409;28;20030;-77
2023/12/04 14:29:19;;;;;;;0.10;0.10;;;11.80;83.90;;;;;;4955181;29;20023;-78
2023/12/04 14:31:46;;;;;;;0.10;0.10;;;11.80;84.90;;;;;;4967041;28;20474;-78
2023/12/04 14:34:12;;;;;;;0.10;0.10;;;11.80;85.00;;;;;;4967420;28;20447;-78
2023/12/04 14:36:40;;;;;;;0.10;0.10;;;11.80;85.10;;;;;;4963460;28;20082;-79
2023/12/04 14:39:06;;;;;;;0.10;0.10;;;11.80;84.50;;;;;;4974679;28;20506;-78
2023/12/04 14:41:32;;;;;;;0.10;0.10;;;11.80;84.90;;;;;;4970726;28;20049;-78
2023/12/04 14:43:57;;;;;;;0.10;0.10;;;11.70;84.90;;;;;;4978819;28;20026;-78
2023/12/04 14:46:23;;;;;;;0.08;0.08;;;11.60;85.30;;;;;;4978489;28;20151;-77
2023/12/04 14:48:49;;;;;;;0.10;0.10;;;11.50;84.90;;;;;;4965796;28;20081;-77
2023/12/04 14:51:15;;;;;;;0.10;0.10;;;11.50;86.00;;;;;;4962231;28;20033;-77
2023/12/04 14:53:50;;;;;;;0.10;0.10;;;11.50;85.40;;;;;;4962663;28;20478;-77
2023/12/04 15:02:39;;;;;;;0.10;0.10;;;11.50;85.30;;;;;;4955874;28;20066;-78
2023/12/04 15:05:38;;;;;;;0.10;0.10;;;11.40;85.50;;;;;;4969464;28;20050;-79
2023/12/04 15:07:52;;;;;;;0.08;0.08;;;11.40;84.80;;;;;;4971455;28;20035;-78
2023/12/04 15:13:15;;;;;;;0.10;0.10;;;11.30;84.70;;;;;;4968900;28;20054;-82
2023/12/04 15:18:46;;;;;;;0.10;0.10;;;11.20;84.90;;;;;;4973572;28;20034;-83
2023/12/04 15:21:12;;;;;;;0.10;0.10;;;11.20;85.00;;;;;;4953732;28;20027;-82
2023/12/04 15:23:38;;;;;;;0.10;0.10;;;11.20;85.20;;;;;;4972362;28;20041;-80
2023/12/04 15:26:05;;;;;;;0.10;0.10;;;11.20;85.50;;;;;;4970621;28;20022;-78
2023/12/04 15:28:30;;;;;;;0.00;0.00;;;11.20;85.60;;;;;;4966514;28;20027;-78
2023/12/04 15:30:56;;;;;;;0.10;0.10;;;11.10;85.70;;;;;;4972782;28;20051;-78
2023/12/04 15:33:25;;;;;;;0.00;0.00;;;11.10;85.90;;;;;;4967098;28;20031;-78
2023/12/04 15:35:52;;;;;;;0.10;0.10;;;11.10;86.30;;;;;;4966392;28;20026;-78
2023/12/04 15:38:19;;;;;;;0.10;0.10;;;11.00;86.30;;;;;;4968362;28;20020;-78
2023/12/04 15:40:45;;;;;;;0.10;0.10;;;11.00;86.50;;;;;;4969296;28;20129;-78
2023/12/04 15:43:10;;;;;;;0.10;0.10;;;11.00;86.90;;;;;;4967674;28;20074;-78
2023/12/04 15:45:36;;;;;;;0.10;0.10;;;10.80;86.10;;;;;;4969568;28;20023;-78
2023/12/04 15:48:02;;;;;;;0.10;0.10;;;10.80;87.00;;;;;;4974929;28;20058;-78
2023/12/04 15:50:28;;;;;;;0.10;0.10;;;10.70;87.20;;;;;;4965786;28;20095;-78
2023/12/04 15:52:54;;;;;;;0.00;0.00;;;10.80;87.40;;;;;;4968794;28;20035;-78
2023/12/04 15:55:20;;;;;;;0.15;0.15;;;10.70;86.90;;;;;;4974684;28;20019;-78
2023/12/04 15:57:46;;;;;;;0.10;0.10;;;10.60;86.90;;;;;;4965685;28;20738;-78
2023/12/04 16:00:13;;;;;;;0.10;0.10;;;10.70;87.30;;;;;;4958662;28;20521;-78
2023/12/04 16:02:39;;;;;;;0.10;0.10;;;10.60;87.20;;;;;;4940414;28;20027;-77
2023/12/04 16:05:07;;;;;;;0.10;0.10;;;10.60;87.30;;;;;;4949199;28;20050;-78
2023/12/04 16:07:32;;;;;;;0.10;0.10;;;10.70;87.20;;;;;;4967929;28;20402;-78
2023/12/04 16:09:58;;;;;;;0.10;0.10;;;10.60;86.70;;;;;;4961215;28;20027;-77
2023/12/04 16:12:23;;;;;;;0.10;0.10;;;10.70;87.30;;;;;;4956536;29;20078;-77
2023/12/04 16:14:50;;;;;;;0.10;0.10;;;10.60;86.50;;;;;;4940231;29;20038;-77
2023/12/04 16:17:15;;;;;;;0.00;0.00;;;10.60;86.70;;;;;;4955701;29;20027;-78
2023/12/04 16:19:41;;;;;;;0.10;0.10;;;10.50;86.60;;;;;;4959703;28;20098;-77
2023/12/04 16:22:06;;;;;;;0.10;0.10;;;10.50;86.50;;;;;;4965513;28;20029;-77
2023/12/04 16:24:32;;;;;;;0.10;0.10;;;10.50;86.10;;;;;;4963820;28;20031;-78
2023/12/04 16:26:58;;;;;;;0.10;0.10;;;10.50;85.90;;;;;;4964548;28;20498;-78
2023/12/04 16:29:30;;;;;;;0.08;0.08;;;10.50;86.30;;;;;;4964373;28;20031;-78
2023/12/04 16:31:56;;;;;;;0.10;0.10;;;10.50;85.90;;;;;;4963193;28;20050;-77
2023/12/04 16:34:21;;;;;;;0.10;0.10;;;10.40;85.40;;;;;;4965889;28;20035;-77
2023/12/04 16:36:47;;;;;;;0.10;0.10;;;10.40;85.40;;;;;;4968664;28;20026;-77
2023/12/04 16:39:15;;;;;;;0.10;0.10;;;10.30;85.40;;;;;;4965168;28;20123;-78
2023/12/04 16:41:41;;;;;;;0.10;0.10;;;10.40;85.00;;;;;;4954007;29;20031;-84
2023/12/04 16:44:07;;;;;;;0.10;0.10;;;10.30;84.90;;;;;;4954424;28;20037;-76
2023/12/04 16:46:33;;;;;;;0.10;0.10;;;10.30;84.30;;;;;;4951577;28;20023;-76
2023/12/04 16:48:59;;;;;;;0.10;0.10;;;10.30;84.90;;;;;;4951633;29;20027;-77
2023/12/04 16:51:24;;;;;;;0.10;0.10;;;10.30;84.00;;;;;;4954879;29;20019;-78
2023/12/04 16:53:50;;;;;;;0.10;0.10;;;10.30;84.40;;;;;;4953180;29;20090;-77
2023/12/04 16:56:16;;;;;;;0.10;0.10;;;10.30;84.50;;;;;;4952520;28;20613;-76
2023/12/04 16:58:42;;;;;;;0.10;0.10;;;10.30;84.80;;;;;;4950619;28;20035;-77
2023/12/04 17:01:08;;;;;;;0.10;0.10;;;10.30;84.70;;;;;;4951376;28;20090;-76
2023/12/04 17:03:33;;;;;;;0.10;0.10;;;10.30;85.50;;;;;;4930296;29;20080;-76
2023/12/04 17:05:59;;;;;;;0.10;0.10;;;10.30;85.20;;;;;;4951588;28;20028;-76
2023/12/04 17:08:25;;;;;;;0.30;0.20;;;10.30;85.20;;;;;;4954075;28;20073;-77
2023/12/04 17:10:51;;;;;;;0.10;0.10;;;10.30;85.20;;;;;;4950937;28;20420;-76
2023/12/04 17:13:16;;;;;;;0.10;0.10;;;10.20;85.40;;;;;;4949758;29;20114;-77
2023/12/04 17:15:42;;;;;;;0.10;0.10;;;10.20;85.20;;;;;;4949827;29;20026;-77
2023/12/04 17:18:08;;;;;;;0.10;0.10;;;10.20;84.80;;;;;;4936857;29;20039;-76
2023/12/04 17:20:34;;;;;;;0.10;0.10;;;10.20;85.00;;;;;;4952081;29;20050;-76
2023/12/04 17:23:00;;;;;;;0.10;0.10;;;10.20;84.70;;;;;;4953256;29;20032;-77
2023/12/04 17:25:25;;;;;;;0.10;0.10;;;10.10;84.20;;;;;;4953137;29;20041;-77
2023/12/04 17:27:51;;;;;;;0.10;0.10;;;10.10;83.90;;;;;;4949312;29;20042;-77
2023/12/04 17:30:17;;;;;;;0.00;0.00;;;10.10;84.20;;;;;;4963174;28;20062;-76
2023/12/04 17:32:42;;;;;;;0.10;0.10;;;10.10;83.70;;;;;;4950354;29;20035;-77
2023/12/04 17:35:10;;;;;;;0.10;0.10;;;10.10;84.40;;;;;;4944571;29;20275;-77
2023/12/04 17:37:36;;;;;;;0.10;0.10;;;10.10;84.80;;;;;;4946871;29;20031;-77
2023/12/04 17:40:02;;;;;;;0.10;0.10;;;10.10;84.20;;;;;;4946591;28;20031;-82
2023/12/04 17:42:28;;;;;;;0.10;0.10;;;10.00;84.40;;;;;;4944071;28;20454;-83
2023/12/04 17:44:54;;;;;;;0.10;0.10;;;10.10;84.80;;;;;;4949999;28;20020;-82
2023/12/04 17:47:19;;;;;;;0.00;0.00;;;10.00;84.00;;;;;;4952628;29;20035;-81
2023/12/04 17:49:46;;;;;;;0.10;0.10;;;10.00;84.50;;;;;;4943975;28;20743;-82
2023/12/04 17:52:12;;;;;;;0.10;0.10;;;10.10;85.00;;;;;;4952636;28;20082;-82
2023/12/04 17:54:38;;;;;;;0.10;0.10;;;10.00;84.10;;;;;;4938574;29;20499;-82
2023/12/04 17:57:04;;;;;;;0.10;0.10;;;10.10;84.90;;;;;;4944550;29;20042;-84
2023/12/04 17:59:29;;;;;;;0.10;0.10;;;10.10;85.00;;;;;;4953760;29;20110;-87
2023/12/04 18:01:55;;;;;;;0.10;0.10;;;10.00;84.50;;;;;;4938571;29;20057;-84
2023/12/04 18:04:20;;;;;;;0.10;0.10;;;10.10;84.70;;;;;;4953650;29;20027;-84
2023/12/04 18:06:46;;;;;;;0.10;0.10;;;10.00;84.00;;;;;;4955239;29;20023;-80
2023/12/04 18:09:12;;;;;;;0.10;0.10;;;10.10;84.30;;;;;;4951634;29;20030;-83
2023/12/04 18:11:41;;;;;;;0.10;0.10;;;10.00;84.20;;;;;;4944993;29;20031;-83
2023/12/04 18:14:06;;;;;;;0.10;0.10;;;10.00;83.90;;;;;;4961632;28;20032;-91
2023/12/04 18:16:32;;;;;;;0.10;0.10;;;10.00;84.20;;;;;;4950204;28;20045;-81
2023/12/04 18:18:58;;;;;;;0.10;0.10;;;10.00;84.30;;;;;;4952698;28;20031;-88
2023/12/04 18:21:23;;;;;;;0.20;0.20;;;10.10;84.90;;;;;;4955990;29;20027;-80
2023/12/04 18:23:55;;;;;;;0.10;0.10;;;10.00;84.30;;;;;;4939759;29;20142;-77
2023/12/04 18:26:21;;;;;;;0.10;0.10;;;10.00;84.70;;;;;;4938520;29;20031;-78
2023/12/04 18:28:48;;;;;;;0.10;0.10;;;10.00;84.00;;;;;;4959071;28;20036;-85
2023/12/04 18:31:15;;;;;;;0.10;0.10;;;10.00;84.20;;;;;;4961159;28;20050;-84
2023/12/04 18:33:41;;;;;;;0.10;0.10;;;9.90;83.30;;;;;;4961325;28;20054;-80